Time;durP1;ratioP1;P1;durP2;ratioP2;P2;SDS_P1;SDS_P2;PMS_P1;PMS_P2;Temp;Humidity;BMP_temperature;BMP_pressure;BME280_temperature;BME280_humidity;BME280_pressure;Samples;Min_cycle;Max_cycle;Signal;HPM_P1;HPM_P2
2022/11/21 00:00:35;;;;;;;32.17;18.77;;;2.10;99.90;;;;;;5047642;28;20185;-63
2022/11/21 00:03:01;;;;;;;28.95;18.38;;;2.00;99.90;;;;;;5037074;28;20041;-63
2022/11/21 00:05:28;;;;;;;31.05;19.38;;;2.10;99.90;;;;;;5048695;28;20214;-63
2022/11/21 00:07:54;;;;;;;29.95;19.17;;;2.10;99.90;;;;;;5047261;28;20509;-63
2022/11/21 00:10:20;;;;;;;29.10;18.45;;;2.10;99.90;;;;;;5049163;28;20037;-64
2022/11/21 00:12:46;;;;;;;29.25;18.27;;;2.00;99.90;;;;;;5049646;28;20581;-63
2022/11/21 00:15:11;;;;;;;28.73;18.23;;;2.00;99.90;;;;;;5047244;28;20120;-63
2022/11/21 00:17:37;;;;;;;29.50;18.65;;;2.00;99.90;;;;;;5047638;28;20048;-62
2022/11/21 00:20:03;;;;;;;30.85;19.42;;;2.10;99.90;;;;;;5045822;28;20620;-63
2022/11/21 00:22:30;;;;;;;31.85;20.13;;;2.00;99.90;;;;;;5048494;28;20028;-64
2022/11/21 00:24:56;;;;;;;30.58;18.90;;;2.00;99.90;;;;;;5044453;28;20051;-63
2022/11/21 00:27:21;;;;;;;32.13;19.85;;;2.00;99.90;;;;;;5046613;28;20037;-66
2022/11/21 00:29:47;;;;;;;31.15;18.23;;;2.00;99.90;;;;;;5048077;28;20071;-63
2022/11/21 00:32:12;;;;;;;32.83;18.70;;;2.00;99.90;;;;;;5046247;28;20136;-63
2022/11/21 00:34:38;;;;;;;31.20;19.15;;;2.00;99.90;;;;;;5048725;28;20086;-61
2022/11/21 00:37:05;;;;;;;29.42;18.35;;;2.00;99.90;;;;;;5049001;28;20170;-63
2022/11/21 00:39:31;;;;;;;29.45;18.08;;;2.00;99.90;;;;;;5049007;28;20045;-63
2022/11/21 00:41:56;;;;;;;29.73;18.38;;;1.90;99.90;;;;;;5031553;28;20075;-63
2022/11/21 00:44:22;;;;;;;29.05;18.85;;;2.00;99.90;;;;;;5040242;28;20032;-63
2022/11/21 00:46:47;;;;;;;31.88;18.80;;;1.90;99.90;;;;;;5047901;28;20131;-63
2022/11/21 00:49:13;;;;;;;27.73;17.40;;;1.90;99.90;;;;;;5046599;28;20327;-63
2022/11/21 00:51:38;;;;;;;29.02;17.95;;;1.90;99.90;;;;;;5048540;28;20135;-63
2022/11/21 00:54:05;;;;;;;30.95;19.30;;;1.90;99.90;;;;;;5049093;28;20045;-63
2022/11/21 00:56:31;;;;;;;28.17;18.67;;;1.90;99.90;;;;;;5048942;28;20124;-63
2022/11/21 00:58:57;;;;;;;26.80;17.42;;;1.90;99.90;;;;;;5046922;28;20120;-63
2022/11/21 01:01:22;;;;;;;28.30;18.27;;;1.90;99.90;;;;;;5033132;28;20056;-63
2022/11/21 01:03:48;;;;;;;29.15;18.05;;;1.80;99.90;;;;;;5047558;28;20068;-63
2022/11/21 01:06:14;;;;;;;27.40;17.30;;;1.90;99.90;;;;;;5047396;28;20028;-63
2022/11/21 01:08:42;;;;;;;31.40;18.25;;;1.90;99.90;;;;;;5052384;28;20041;-63
2022/11/21 01:11:11;;;;;;;31.75;18.33;;;1.80;99.90;;;;;;5052424;28;20076;-64
2022/11/21 01:13:36;;;;;;;28.83;17.88;;;1.80;99.90;;;;;;5050985;28;20339;-63
2022/11/21 01:16:09;;;;;;;29.65;18.40;;;1.80;99.90;;;;;;5050890;28;20040;-63
2022/11/21 01:18:35;;;;;;;29.65;18.42;;;1.80;99.90;;;;;;5037036;28;20040;-64
2022/11/21 01:21:03;;;;;;;25.77;17.48;;;1.80;99.90;;;;;;5051263;28;20033;-63
2022/11/21 01:23:29;;;;;;;30.60;19.25;;;1.90;99.90;;;;;;5051912;28;20069;-63
2022/11/21 01:25:59;;;;;;;30.50;19.05;;;1.90;99.90;;;;;;5047916;28;20167;-63
2022/11/21 01:28:25;;;;;;;26.13;17.80;;;1.80;99.90;;;;;;5053090;28;20083;-63
2022/11/21 01:30:50;;;;;;;26.77;17.98;;;1.90;99.90;;;;;;5038240;28;20045;-67
2022/11/21 01:33:16;;;;;;;29.30;19.00;;;1.90;99.90;;;;;;5051770;28;20052;-63
2022/11/21 01:35:41;;;;;;;30.48;18.15;;;1.90;99.90;;;;;;5042897;28;20385;-63
2022/11/21 01:38:07;;;;;;;30.38;19.33;;;1.90;99.90;;;;;;5052347;28;20118;-63
2022/11/21 01:40:37;;;;;;;26.42;17.10;;;2.00;99.90;;;;;;5042244;28;20087;-63
2022/11/21 01:43:11;;;;;;;26.52;17.65;;;1.90;99.90;;;;;;5038080;28;20421;-64
2022/11/21 01:46:04;;;;;;;27.20;17.55;;;1.90;99.90;;;;;;5036440;28;20064;-64
2022/11/21 01:48:35;;;;;;;25.52;17.95;;;1.90;99.90;;;;;;5050021;28;20358;-63
2022/11/21 01:51:08;;;;;;;26.30;16.58;;;1.90;99.90;;;;;;5048165;28;20488;-63
2022/11/21 01:53:35;;;;;;;27.95;18.13;;;2.00;99.90;;;;;;5051865;28;20659;-63
2022/11/21 01:56:01;;;;;;;29.15;19.08;;;2.00;99.90;;;;;;5052199;28;20036;-63
2022/11/21 01:58:29;;;;;;;29.38;18.33;;;2.00;99.90;;;;;;5050090;28;20037;-63
2022/11/21 02:00:55;;;;;;;28.67;17.52;;;2.00;99.90;;;;;;5046979;28;20051;-63
2022/11/21 02:03:25;;;;;;;26.45;17.90;;;1.90;99.90;;;;;;5048883;28;20367;-63
2022/11/21 02:05:53;;;;;;;27.00;17.63;;;1.90;99.90;;;;;;5051072;28;20037;-64
2022/11/21 02:08:20;;;;;;;30.10;18.63;;;1.90;99.90;;;;;;5050094;28;20044;-63
2022/11/21 02:11:06;;;;;;;31.05;17.73;;;1.90;99.90;;;;;;5051397;28;20846;-64
2022/11/21 02:13:32;;;;;;;28.52;18.38;;;1.90;99.90;;;;;;5040433;28;20044;-64
2022/11/21 02:15:58;;;;;;;26.80;17.67;;;2.00;99.90;;;;;;5049453;28;20532;-64
2022/11/21 02:18:23;;;;;;;25.98;17.65;;;2.00;99.90;;;;;;5046566;28;20033;-63
2022/11/21 02:20:59;;;;;;;25.92;17.40;;;2.00;99.90;;;;;;5050049;28;20043;-64
2022/11/21 02:23:56;;;;;;;26.40;17.42;;;2.00;99.90;;;;;;5037889;28;20048;-64
2022/11/21 02:26:22;;;;;;;27.77;18.02;;;2.00;99.90;;;;;;5049441;28;20048;-63
2022/11/21 02:28:47;;;;;;;29.85;18.40;;;1.90;99.90;;;;;;5050523;28;20605;-63
2022/11/21 02:31:13;;;;;;;25.13;17.13;;;2.00;99.90;;;;;;5049645;28;20041;-63
2022/11/21 02:33:38;;;;;;;28.38;17.85;;;2.00;99.90;;;;;;5050393;28;20104;-63
2022/11/21 02:36:24;;;;;;;29.00;18.25;;;2.00;99.90;;;;;;5050442;28;20037;-63
2022/11/21 02:38:51;;;;;;;27.33;17.77;;;2.00;99.90;;;;;;5049990;28;20049;-63
2022/11/21 02:41:25;;;;;;;27.25;18.30;;;2.00;99.90;;;;;;5034239;28;20056;-64
2022/11/21 02:43:57;;;;;;;28.52;17.20;;;2.00;99.90;;;;;;5049667;28;20075;-63
2022/11/21 02:46:23;;;;;;;25.42;17.90;;;2.00;99.90;;;;;;5048346;28;20120;-63
2022/11/21 02:48:48;;;;;;;28.90;18.42;;;2.10;99.90;;;;;;5051737;28;20473;-63
2022/11/21 02:51:14;;;;;;;27.75;17.45;;;2.10;99.90;;;;;;5049088;28;20056;-64
2022/11/21 02:53:39;;;;;;;26.58;18.30;;;2.10;99.90;;;;;;5051083;28;20053;-63
2022/11/21 02:56:05;;;;;;;27.33;17.88;;;2.10;99.90;;;;;;5051051;28;20067;-63
2022/11/21 02:58:30;;;;;;;28.00;17.77;;;2.20;99.90;;;;;;5048655;28;20041;-63
2022/11/21 03:00:56;;;;;;;26.73;17.48;;;2.10;99.90;;;;;;5048728;28;20044;-63
2022/11/21 03:03:22;;;;;;;29.45;18.95;;;2.10;99.90;;;;;;5047876;28;20048;-63
2022/11/21 03:05:48;;;;;;;28.80;18.73;;;2.10;99.90;;;;;;5040423;28;20112;-63
2022/11/21 03:08:13;;;;;;;29.98;19.55;;;2.00;99.90;;;;;;5048656;28;20044;-63
2022/11/21 03:10:40;;;;;;;27.20;18.48;;;2.00;99.90;;;;;;5050079;28;20029;-63
2022/11/21 03:13:06;;;;;;;30.38;19.52;;;2.00;99.90;;;;;;5050643;28;20076;-63
2022/11/21 03:15:33;;;;;;;28.33;18.95;;;2.00;99.90;;;;;;5048509;28;20052;-63
2022/11/21 03:18:01;;;;;;;28.98;18.20;;;2.00;99.90;;;;;;5038314;28;20095;-63
2022/11/21 03:20:27;;;;;;;28.17;17.75;;;1.90;99.90;;;;;;5037470;28;20535;-63
2022/11/21 03:22:54;;;;;;;29.10;18.27;;;1.90;99.90;;;;;;5048851;28;20048;-63
2022/11/21 03:25:20;;;;;;;27.77;18.85;;;2.00;99.90;;;;;;5046725;28;20679;-63
2022/11/21 03:27:50;;;;;;;28.35;17.95;;;2.00;99.90;;;;;;5048910;28;20041;-63
2022/11/21 03:30:15;;;;;;;29.15;19.48;;;2.00;99.90;;;;;;5036006;28;20052;-64
2022/11/21 03:32:42;;;;;;;29.10;18.55;;;2.00;99.90;;;;;;5036557;28;20032;-63
2022/11/21 03:35:08;;;;;;;25.05;17.48;;;2.00;99.90;;;;;;5049187;28;20426;-63
2022/11/21 03:37:34;;;;;;;28.58;18.42;;;1.90;99.90;;;;;;5048816;28;20029;-63
2022/11/21 03:39:59;;;;;;;29.35;18.92;;;1.90;99.90;;;;;;5050726;28;20045;-63
2022/11/21 03:42:25;;;;;;;31.02;20.02;;;1.80;99.90;;;;;;5052873;28;20044;-63
2022/11/21 03:44:51;;;;;;;29.85;19.50;;;1.80;99.90;;;;;;5039029;28;20063;-65
2022/11/21 03:47:16;;;;;;;27.80;18.48;;;1.80;99.90;;;;;;5057254;28;20102;-64
2022/11/21 03:49:42;;;;;;;26.92;18.20;;;1.70;99.90;;;;;;5055435;28;20047;-63
2022/11/21 03:52:07;;;;;;;26.92;18.33;;;1.70;99.90;;;;;;5058904;28;20033;-64
2022/11/21 03:54:33;;;;;;;28.05;18.02;;;1.80;99.90;;;;;;5059630;28;20112;-63
2022/11/21 03:56:59;;;;;;;30.95;19.50;;;1.80;99.90;;;;;;5058490;28;20094;-64
2022/11/21 03:59:25;;;;;;;28.52;18.58;;;1.80;99.90;;;;;;5057040;28;20127;-64
2022/11/21 04:01:51;;;;;;;28.58;18.42;;;1.70;99.90;;;;;;5055400;28;20116;-63
2022/11/21 04:04:16;;;;;;;30.38;18.63;;;1.70;99.90;;;;;;5057305;28;20043;-64
2022/11/21 04:06:42;;;;;;;28.50;18.58;;;1.70;99.90;;;;;;5056656;28;20077;-63
2022/11/21 04:09:09;;;;;;;30.13;18.92;;;1.80;99.90;;;;;;5055935;28;20037;-63
2022/11/21 04:11:36;;;;;;;29.33;18.85;;;1.60;99.90;;;;;;5058615;28;20028;-62
2022/11/21 04:14:03;;;;;;;28.63;18.60;;;1.60;99.90;;;;;;5059756;28;20060;-63
2022/11/21 04:16:29;;;;;;;28.90;19.40;;;1.60;99.90;;;;;;5051491;28;20036;-63
2022/11/21 04:18:54;;;;;;;27.92;18.52;;;1.50;99.90;;;;;;5056299;28;20048;-63
2022/11/21 04:21:20;;;;;;;30.20;19.70;;;1.40;99.90;;;;;;5056619;28;20052;-63
2022/11/21 04:23:45;;;;;;;30.95;19.45;;;1.40;99.90;;;;;;5054236;28;20094;-64
2022/11/21 04:26:11;;;;;;;28.15;17.92;;;1.30;99.90;;;;;;5055103;28;20045;-63
2022/11/21 04:28:37;;;;;;;25.38;17.00;;;1.30;99.90;;;;;;5040449;28;20048;-63
2022/11/21 04:31:06;;;;;;;29.08;18.50;;;1.20;99.90;;;;;;5053729;28;20044;-63
2022/11/21 04:33:32;;;;;;;29.77;18.65;;;1.10;99.90;;;;;;5057919;28;20029;-63
2022/11/21 04:35:58;;;;;;;29.42;18.42;;;1.10;99.90;;;;;;5057860;28;20138;-63
2022/11/21 04:38:23;;;;;;;26.98;18.10;;;1.00;99.90;;;;;;5039810;28;20045;-63
2022/11/21 04:40:49;;;;;;;30.52;19.45;;;1.00;99.90;;;;;;5029984;28;20253;-63
2022/11/21 04:43:15;;;;;;;28.65;17.33;;;0.90;99.90;;;;;;5036626;28;20145;-63
2022/11/21 04:45:43;;;;;;;28.70;19.13;;;0.90;99.90;;;;;;5027288;28;20488;-64
2022/11/21 04:48:09;;;;;;;32.42;19.92;;;0.80;99.90;;;;;;5036270;28;20048;-64
2022/11/21 04:50:35;;;;;;;29.52;18.42;;;0.80;99.90;;;;;;5034104;28;20041;-65
2022/11/21 04:53:00;;;;;;;29.13;18.42;;;0.70;99.90;;;;;;5028703;28;20033;-64
2022/11/21 04:55:30;;;;;;;30.13;19.17;;;0.70;99.90;;;;;;5039244;28;20052;-63
2022/11/21 04:57:56;;;;;;;31.60;18.13;;;0.70;99.90;;;;;;5030182;28;20060;-64
2022/11/21 05:00:22;;;;;;;30.58;18.67;;;0.70;99.90;;;;;;5025596;28;20037;-64
2022/11/21 05:02:48;;;;;;;28.77;18.15;;;0.60;99.90;;;;;;5035281;28;20034;-64
2022/11/21 05:05:14;;;;;;;27.20;17.90;;;0.60;99.90;;;;;;5036500;28;20061;-62
2022/11/21 05:07:39;;;;;;;30.20;19.08;;;0.50;99.90;;;;;;5035573;28;20029;-63
2022/11/21 05:10:06;;;;;;;30.88;18.23;;;0.50;99.90;;;;;;5037732;28;20038;-63
2022/11/21 05:15:16;;;;;;;31.52;18.30;;;0.50;99.90;;;;;;5033445;28;20199;-63
2022/11/21 05:17:43;;;;;;;32.20;18.27;;;0.40;99.90;;;;;;5034189;28;20061;-63
2022/11/21 05:20:09;;;;;;;30.20;18.30;;;0.50;99.90;;;;;;5034107;28;20077;-64
2022/11/21 05:22:34;;;;;;;31.00;20.23;;;0.40;99.90;;;;;;5027481;28;20087;-64
2022/11/21 05:25:00;;;;;;;32.42;19.42;;;0.40;99.90;;;;;;5037099;28;20045;-64
2022/11/21 05:27:26;;;;;;;32.63;18.85;;;0.40;99.90;;;;;;5024314;28;20479;-65
2022/11/21 05:29:52;;;;;;;32.97;19.02;;;0.40;99.90;;;;;;5033820;28;20041;-64
2022/11/21 05:32:17;;;;;;;30.75;18.55;;;0.40;99.90;;;;;;5036662;28;20044;-63
2022/11/21 05:34:43;;;;;;;33.85;18.23;;;0.40;99.90;;;;;;5055737;28;20045;-64
2022/11/21 05:37:09;;;;;;;31.63;18.95;;;0.30;99.90;;;;;;5035544;28;20048;-63
2022/11/21 05:39:34;;;;;;;33.33;18.42;;;0.30;99.90;;;;;;5036472;28;20416;-63
2022/11/21 05:42:00;;;;;;;32.33;18.52;;;0.30;99.90;;;;;;5026799;28;20045;-64
2022/11/21 05:44:25;;;;;;;30.65;18.50;;;0.30;99.90;;;;;;5023719;28;20049;-64
2022/11/21 05:46:51;;;;;;;31.00;18.20;;;0.30;99.90;;;;;;5037992;28;20072;-63
2022/11/21 05:49:16;;;;;;;29.73;18.13;;;0.30;99.90;;;;;;5033684;28;20048;-63
2022/11/21 05:51:42;;;;;;;32.58;19.42;;;0.20;99.90;;;;;;5036866;28;20036;-64
2022/11/21 05:54:14;;;;;;;28.98;18.42;;;0.20;99.90;;;;;;5040813;28;20458;-64
2022/11/21 05:56:40;;;;;;;29.77;18.55;;;0.20;99.90;;;;;;5041885;28;20117;-64
2022/11/21 05:59:05;;;;;;;29.35;18.13;;;0.10;99.90;;;;;;5035103;28;20049;-63
2022/11/21 06:04:15;;;;;;;30.45;18.95;;;0.10;99.90;;;;;;5040711;28;20505;-63
2022/11/21 06:06:42;;;;;;;30.17;18.20;;;0.10;99.90;;;;;;5038465;28;20041;-64
2022/11/21 06:09:08;;;;;;;28.73;17.35;;;0.10;99.90;;;;;;5036785;28;20359;-63
2022/11/21 06:11:33;;;;;;;32.05;18.83;;;0.10;99.90;;;;;;5033600;28;20059;-63
2022/11/21 06:13:59;;;;;;;32.38;18.48;;;0.00;99.90;;;;;;5043064;28;20033;-63
2022/11/21 06:16:24;;;;;;;35.33;20.38;;;0.00;99.90;;;;;;5026405;28;20140;-64
2022/11/21 06:18:51;;;;;;;33.90;18.67;;;0.00;99.90;;;;;;5035610;28;20049;-63
2022/11/21 06:21:19;;;;;;;33.08;20.17;;;0.00;99.90;;;;;;5039058;28;20055;-64
2022/11/21 06:23:49;;;;;;;39.45;21.02;;;0.00;99.90;;;;;;5034515;28;20034;-64
2022/11/21 06:26:17;;;;;;;37.25;19.95;;;-0.10;99.90;;;;;;5036300;28;20034;-63
2022/11/21 06:28:46;;;;;;;31.80;19.02;;;-0.10;99.90;;;;;;5035717;28;20033;-63
2022/11/21 06:31:15;;;;;;;33.95;20.02;;;-0.20;99.90;;;;;;5037542;28;20037;-63
2022/11/21 06:33:41;;;;;;;30.92;19.63;;;-0.20;99.90;;;;;;5040003;28;20651;-63
2022/11/21 06:36:09;;;;;;;36.15;19.60;;;-0.20;99.90;;;;;;5038525;28;20065;-63
2022/11/21 06:38:35;;;;;;;41.22;20.77;;;-0.20;99.90;;;;;;5033824;28;20041;-63
2022/11/21 06:41:06;;;;;;;65.00;21.85;;;-0.20;99.90;;;;;;5049350;28;20052;-63
2022/11/21 06:43:32;;;;;;;151.95;24.67;;;-0.20;99.90;;;;;;5055905;28;20059;-63
2022/11/21 06:46:00;;;;;;;229.52;26.77;;;-0.20;99.90;;;;;;5052836;28;20042;-63
2022/11/21 06:48:27;;;;;;;259.88;26.90;;;-0.20;99.90;;;;;;5054379;28;20037;-63
2022/11/21 06:50:52;;;;;;;157.50;26.10;;;-0.20;99.90;;;;;;5058833;28;20142;-63
2022/11/21 06:53:18;;;;;;;165.23;26.38;;;-0.20;99.90;;;;;;5042812;28;20033;-64
2022/11/21 06:55:44;;;;;;;150.00;25.25;;;-0.20;99.90;;;;;;5060500;28;20379;-63
2022/11/21 06:58:09;;;;;;;89.57;21.90;;;-0.20;99.90;;;;;;5056683;28;21503;-63
2022/11/21 07:00:35;;;;;;;111.38;23.00;;;-0.20;99.90;;;;;;5052605;28;20059;-63
2022/11/21 07:03:02;;;;;;;115.20;22.63;;;-0.20;99.90;;;;;;5057168;28;20029;-63
2022/11/21 07:05:28;;;;;;;98.57;21.35;;;-0.10;99.90;;;;;;5048962;28;20037;-66
2022/11/21 07:08:03;;;;;;;115.90;24.05;;;-0.10;99.90;;;;;;5030849;28;20435;-64
2022/11/21 07:10:29;;;;;;;135.70;30.88;;;-0.10;99.90;;;;;;5050511;28;20041;-66
2022/11/21 07:16:06;;;;;;;184.00;24.83;;;-0.10;99.90;;;;;;5004800;28;20050;-63
2022/11/21 07:18:31;;;;;;;243.68;33.35;;;0.00;99.90;;;;;;5049036;28;20037;-62
2022/11/21 07:21:05;;;;;;;91.53;25.33;;;0.00;99.90;;;;;;5056853;28;20140;-63
2022/11/21 07:23:32;;;;;;;99.82;25.38;;;0.10;99.90;;;;;;5060387;28;20042;-63
2022/11/21 07:26:02;;;;;;;148.70;28.20;;;0.10;99.90;;;;;;5053282;28;20049;-62
2022/11/21 07:28:28;;;;;;;77.47;23.58;;;0.10;99.90;;;;;;5056760;28;20670;-63
2022/11/21 07:30:58;;;;;;;120.18;24.80;;;0.20;99.90;;;;;;5059688;28;20024;-63
2022/11/21 07:33:24;;;;;;;101.55;27.63;;;0.20;99.90;;;;;;5061261;28;20040;-63
2022/11/21 07:35:50;;;;;;;177.63;31.73;;;0.20;99.90;;;;;;5060161;28;20045;-63
2022/11/21 07:38:16;;;;;;;109.43;23.58;;;0.20;99.90;;;;;;5056843;28;20323;-63
2022/11/21 07:40:42;;;;;;;73.68;22.00;;;0.20;99.90;;;;;;5059813;28;20053;-62
2022/11/21 07:43:09;;;;;;;179.93;28.05;;;0.30;99.90;;;;;;5056258;28;20052;-62
2022/11/21 07:45:35;;;;;;;100.10;20.52;;;0.30;99.90;;;;;;5049346;28;20114;-62
2022/11/21 07:48:03;;;;;;;128.48;20.83;;;0.30;99.90;;;;;;5052231;28;20065;-62
2022/11/21 07:50:29;;;;;;;70.40;19.48;;;0.30;99.90;;;;;;5059558;28;20104;-62
2022/11/21 07:53:03;;;;;;;72.88;18.48;;;0.30;99.90;;;;;;5040947;28;20135;-61
2022/11/21 07:55:29;;;;;;;267.92;33.05;;;0.30;99.90;;;;;;5060544;28;20056;-62
2022/11/21 07:58:05;;;;;;;182.07;23.08;;;0.30;99.90;;;;;;5048961;28;20130;-62
2022/11/21 08:00:32;;;;;;;87.97;19.50;;;0.30;99.90;;;;;;5057863;28;20070;-62
2022/11/21 08:02:59;;;;;;;58.85;16.77;;;0.30;99.90;;;;;;5053189;28;20049;-63
2022/11/21 08:05:25;;;;;;;45.08;15.68;;;0.30;99.90;;;;;;5056265;28;20038;-62
2022/11/21 08:07:51;;;;;;;70.97;19.73;;;0.30;99.90;;;;;;5057070;28;20496;-62
2022/11/21 08:10:17;;;;;;;119.65;26.27;;;0.30;99.90;;;;;;5058368;28;20384;-62
2022/11/21 08:12:44;;;;;;;147.40;25.20;;;0.30;99.90;;;;;;5058909;28;20032;-62
2022/11/21 08:15:10;;;;;;;83.72;19.83;;;0.30;99.90;;;;;;5034745;28;20060;-63
2022/11/21 08:17:37;;;;;;;52.78;15.63;;;0.30;99.90;;;;;;5052407;28;20496;-62
2022/11/21 08:20:04;;;;;;;105.47;23.00;;;0.40;99.90;;;;;;5051915;28;20041;-63
2022/11/21 08:22:30;;;;;;;135.82;23.60;;;0.30;99.90;;;;;;5055494;28;20073;-62
2022/11/21 08:24:55;;;;;;;86.43;18.73;;;0.40;99.90;;;;;;5059336;28;20318;-63
2022/11/21 08:27:23;;;;;;;184.32;31.25;;;0.30;99.90;;;;;;5056775;28;20080;-63
2022/11/21 08:29:49;;;;;;;69.20;16.60;;;0.40;99.90;;;;;;5030913;28;20077;-63
2022/11/21 08:32:15;;;;;;;81.72;17.63;;;0.40;99.90;;;;;;5034870;28;20041;-68
2022/11/21 08:34:41;;;;;;;62.92;16.00;;;0.40;99.90;;;;;;5054748;28;20037;-63
2022/11/21 08:37:06;;;;;;;65.07;19.17;;;0.40;99.90;;;;;;5056047;28;20331;-63
2022/11/21 08:39:32;;;;;;;64.80;16.15;;;0.50;99.90;;;;;;5057831;28;20034;-62
2022/11/21 08:42:04;;;;;;;36.72;14.07;;;0.50;99.90;;;;;;5053146;28;20045;-62
2022/11/21 08:44:31;;;;;;;54.38;15.57;;;0.60;99.90;;;;;;5055091;28;20037;-62
2022/11/21 08:46:57;;;;;;;53.22;14.60;;;0.50;99.90;;;;;;5053372;28;20085;-62
2022/11/21 08:49:23;;;;;;;45.10;14.48;;;0.60;99.90;;;;;;5055938;28;20034;-63
2022/11/21 08:51:49;;;;;;;42.40;17.17;;;0.60;99.90;;;;;;5056047;28;20029;-63
2022/11/21 08:54:20;;;;;;;40.47;16.23;;;0.70;99.90;;;;;;5055457;28;20442;-63
2022/11/21 08:56:45;;;;;;;52.13;19.27;;;0.60;99.90;;;;;;5058969;28;20060;-63
2022/11/21 08:59:11;;;;;;;50.70;16.77;;;0.60;99.90;;;;;;5053579;28;20037;-62
2022/11/21 09:01:37;;;;;;;32.08;15.57;;;0.70;99.90;;;;;;5052708;28;20510;-63
2022/11/21 09:04:04;;;;;;;31.55;13.93;;;0.70;99.90;;;;;;5055329;28;20156;-63
2022/11/21 09:06:30;;;;;;;38.25;16.55;;;0.80;99.90;;;;;;5054123;28;20426;-63
2022/11/21 09:08:56;;;;;;;28.55;15.70;;;0.80;99.90;;;;;;5052115;28;20037;-62
2022/11/21 09:11:21;;;;;;;38.33;16.77;;;0.90;99.90;;;;;;5057217;28;20041;-63
2022/11/21 09:18:01;;;;;;;29.60;15.75;;;0.90;99.90;;;;;;5058489;28;20037;-62
2022/11/21 09:19:16;;;;;;;28.98;17.50;;;1.00;99.90;;;;;;5051999;28;20124;-63
2022/11/21 09:21:42;;;;;;;26.20;15.20;;;1.00;99.90;;;;;;5055787;28;20116;-62
2022/11/21 09:24:07;;;;;;;24.63;14.52;;;1.10;99.90;;;;;;5058348;28;20046;-62
2022/11/21 09:26:33;;;;;;;24.33;14.95;;;1.20;99.90;;;;;;5052876;28;20464;-63
2022/11/21 09:28:58;;;;;;;27.58;16.63;;;1.20;99.90;;;;;;5055673;28;20158;-62
2022/11/21 09:31:24;;;;;;;28.63;16.58;;;1.30;99.90;;;;;;5058773;28;20091;-62
2022/11/21 09:33:50;;;;;;;27.02;16.30;;;1.40;99.90;;;;;;5061144;28;20039;-63
2022/11/21 09:36:15;;;;;;;24.58;16.25;;;1.40;99.90;;;;;;5056767;28;20479;-63
2022/11/21 09:38:41;;;;;;;23.58;14.18;;;1.50;99.90;;;;;;5060146;28;20059;-62
2022/11/21 09:44:27;;;;;;;25.80;14.23;;;1.60;99.90;;;;;;5060940;28;20049;-62
2022/11/21 09:47:14;;;;;;;22.90;14.57;;;1.60;99.90;;;;;;5061035;28;20051;-62
2022/11/21 09:49:43;;;;;;;23.45;14.57;;;1.70;99.90;;;;;;5057364;28;20040;-63
2022/11/21 09:52:12;;;;;;;23.00;14.15;;;1.70;99.90;;;;;;5042721;28;20037;-63
2022/11/21 09:54:47;;;;;;;20.45;13.88;;;1.70;99.90;;;;;;5059241;28;20405;-63
2022/11/21 09:57:17;;;;;;;21.95;13.48;;;1.70;99.90;;;;;;5059236;28;20040;-63
2022/11/21 09:59:43;;;;;;;21.10;13.43;;;1.60;99.90;;;;;;5053244;28;20061;-63
2022/11/21 10:02:14;;;;;;;22.85;14.07;;;1.70;99.90;;;;;;5060498;28;20052;-62
2022/11/21 10:04:40;;;;;;;23.80;14.38;;;1.80;99.90;;;;;;5054597;28;20045;-63
2022/11/21 10:07:22;;;;;;;21.05;13.88;;;1.80;99.90;;;;;;5059607;28;20044;-62
2022/11/21 10:10:25;;;;;;;21.40;14.02;;;1.80;99.90;;;;;;5060766;28;20094;-62
2022/11/21 10:13:23;;;;;;;22.33;14.18;;;1.80;99.90;;;;;;5061226;28;20045;-62
2022/11/21 10:15:55;;;;;;;21.23;13.07;;;1.80;99.90;;;;;;5055076;28;20032;-62
2022/11/21 10:18:32;;;;;;;22.25;14.05;;;1.80;99.90;;;;;;5052907;28;20137;-62
2022/11/21 10:21:14;;;;;;;22.33;14.20;;;1.80;99.90;;;;;;5058713;28;20395;-62
2022/11/21 10:23:57;;;;;;;21.05;13.55;;;1.70;99.90;;;;;;5060497;28;20063;-62
2022/11/21 10:26:48;;;;;;;23.08;14.50;;;1.80;99.90;;;;;;5054145;28;20142;-62
2022/11/21 10:29:22;;;;;;;20.85;12.98;;;1.80;99.90;;;;;;5054198;28;20037;-62
2022/11/21 10:31:48;;;;;;;22.60;13.90;;;1.80;99.90;;;;;;5040384;28;20036;-62
2022/11/21 10:34:19;;;;;;;23.20;14.52;;;1.90;99.90;;;;;;5059272;28;20415;-62
2022/11/21 10:36:49;;;;;;;20.63;13.50;;;1.90;99.90;;;;;;5060862;28;20068;-62
2022/11/21 10:39:33;;;;;;;18.73;13.50;;;2.00;99.90;;;;;;5040910;28;20387;-62
2022/11/21 10:42:14;;;;;;;20.73;13.65;;;2.00;99.90;;;;;;5053075;28;20137;-62
2022/11/21 10:47:31;;;;;;;21.35;14.00;;;2.00;99.90;;;;;;5056982;28;20424;-62
2022/11/21 10:50:07;;;;;;;22.70;14.50;;;2.00;99.90;;;;;;5057062;28;20032;-62
2022/11/21 10:52:38;;;;;;;21.92;14.57;;;2.00;99.90;;;;;;5040605;28;20524;-62
2022/11/21 10:55:06;;;;;;;23.40;14.25;;;2.00;99.90;;;;;;5060374;28;20335;-62
2022/11/21 10:57:43;;;;;;;22.17;14.95;;;2.10;99.90;;;;;;5054574;28;20041;-62
2022/11/21 11:00:11;;;;;;;23.02;14.68;;;2.10;99.90;;;;;;5056362;28;20412;-62
2022/11/21 11:02:38;;;;;;;21.50;13.82;;;2.10;99.90;;;;;;5037480;28;20040;-62
2022/11/21 11:05:23;;;;;;;20.50;14.35;;;2.10;99.90;;;;;;5056197;28;20043;-62
2022/11/21 11:08:10;;;;;;;21.83;14.77;;;2.10;99.90;;;;;;5054789;28;20053;-62
2022/11/21 11:10:43;;;;;;;22.48;14.30;;;2.10;99.90;;;;;;5053494;28;20037;-62
2022/11/21 11:13:32;;;;;;;23.15;15.07;;;2.30;99.90;;;;;;5056912;28;20110;-62
2022/11/21 11:16:03;;;;;;;22.77;14.65;;;2.20;99.90;;;;;;5052094;28;20371;-62
2022/11/21 11:18:33;;;;;;;25.63;15.13;;;2.30;99.90;;;;;;5054778;28;20072;-62
2022/11/21 11:21:20;;;;;;;26.23;16.95;;;2.30;99.90;;;;;;5037251;28;20124;-62
2022/11/21 11:23:51;;;;;;;24.85;15.82;;;2.30;99.90;;;;;;5055695;28;20528;-62
2022/11/21 11:26:28;;;;;;;23.48;14.40;;;2.30;99.90;;;;;;5034278;28;20067;-62
2022/11/21 11:29:14;;;;;;;24.23;15.15;;;2.30;99.90;;;;;;5055405;28;20421;-62
2022/11/21 11:31:57;;;;;;;24.08;14.95;;;2.30;99.90;;;;;;5054797;28;20033;-62
2022/11/21 11:34:35;;;;;;;22.63;14.60;;;2.30;99.90;;;;;;5056111;28;20116;-62
2022/11/21 11:37:10;;;;;;;25.77;15.88;;;2.30;99.90;;;;;;5055781;28;20055;-62
2022/11/21 11:39:48;;;;;;;;;;;2.30;99.90;;;;;;5051425;28;20039;-64
2022/11/21 11:49:00;;;;;;;25.02;15.93;;;2.50;99.90;;;;;;5035907;28;20470;-62
2022/11/21 11:51:46;;;;;;;26.50;15.77;;;2.50;99.90;;;;;;5022389;28;20188;-62
2022/11/21 11:54:31;;;;;;;27.17;16.80;;;2.60;99.90;;;;;;5039855;28;20365;-62
2022/11/21 11:56:58;;;;;;;26.08;16.42;;;2.70;99.90;;;;;;5017744;28;20349;-62
2022/11/21 11:59:29;;;;;;;23.27;15.75;;;2.80;99.90;;;;;;5038339;28;20418;-62
2022/11/21 12:02:02;;;;;;;26.33;16.95;;;2.90;99.90;;;;;;5036079;28;20045;-61
2022/11/21 12:04:36;;;;;;;25.70;17.42;;;3.10;99.90;;;;;;5037916;28;20047;-62
2022/11/21 12:07:10;;;;;;;25.17;17.50;;;3.20;99.90;;;;;;5035541;28;20068;-62
2022/11/21 12:10:13;;;;;;;26.15;16.90;;;3.30;99.90;;;;;;5034958;28;20043;-62
2022/11/21 12:12:44;;;;;;;25.80;16.58;;;3.30;99.90;;;;;;5019089;28;20362;-62
2022/11/21 12:18:21;;;;;;;24.70;15.15;;;3.30;99.90;;;;;;5038624;28;20053;-62
2022/11/21 12:21:04;;;;;;;24.90;15.23;;;3.30;99.90;;;;;;5038930;28;20045;-62
2022/11/21 12:23:47;;;;;;;23.27;14.10;;;3.30;99.90;;;;;;5036219;28;20071;-62
2022/11/21 12:26:24;;;;;;;25.77;15.05;;;3.30;99.90;;;;;;5038334;28;20120;-62
2022/11/21 12:29:27;;;;;;;22.98;15.50;;;3.30;99.90;;;;;;5034748;28;20096;-63
2022/11/21 12:31:58;;;;;;;26.60;16.83;;;3.30;99.90;;;;;;5037587;28;20499;-63
2022/11/21 12:34:51;;;;;;;25.35;15.23;;;3.30;99.90;;;;;;5038335;28;20037;-62
2022/11/21 12:37:35;;;;;;;31.23;17.55;;;3.30;99.90;;;;;;5036051;28;20071;-62
2022/11/21 12:40:25;;;;;;;28.80;16.70;;;3.30;99.90;;;;;;5039201;28;20408;-62
2022/11/21 12:43:26;;;;;;;28.75;17.17;;;3.30;99.90;;;;;;5051968;28;20052;-62
2022/11/21 12:46:17;;;;;;;35.25;17.75;;;3.30;99.90;;;;;;5037475;28;20059;-62
2022/11/21 12:55:01;;;;;;;37.13;18.10;;;3.20;99.90;;;;;;5053349;28;20047;-62
2022/11/21 12:57:45;;;;;;;40.00;22.20;;;3.20;99.90;;;;;;5051743;28;20120;-62
2022/11/21 13:00:17;;;;;;;40.90;19.88;;;3.20;99.90;;;;;;5036709;28;20481;-65
2022/11/21 13:03:13;;;;;;;39.08;19.05;;;3.20;99.90;;;;;;5047600;28;20037;-66
2022/11/21 13:05:44;;;;;;;34.92;18.30;;;3.30;99.90;;;;;;5054234;28;20493;-63
2022/11/21 13:08:23;;;;;;;44.70;18.63;;;3.30;99.90;;;;;;5034759;28;20494;-63
2022/11/21 13:14:08;;;;;;;41.78;19.58;;;3.30;99.90;;;;;;5057127;28;20033;-61
2022/11/21 13:16:38;;;;;;;38.83;18.33;;;3.30;99.90;;;;;;5037389;28;20037;-62
2022/11/21 13:19:16;;;;;;;39.83;19.40;;;3.40;99.90;;;;;;5058693;28;20428;-62
2022/11/21 13:21:49;;;;;;;37.67;18.75;;;3.40;99.90;;;;;;5055681;28;20056;-62
2022/11/21 13:24:55;;;;;;;38.67;17.88;;;3.40;99.90;;;;;;5040472;28;20068;-63